createdAt,value
2023-11-11T00:00:21.605Z,96109.32
2023-11-11T00:03:09.982Z,96109.98
2023-11-11T00:05:38.139Z,96111.41
2023-11-11T00:08:06.107Z,96109.09
2023-11-11T00:10:34.924Z,96105.44
2023-11-11T00:13:04.354Z,96102.05
2023-11-11T00:15:34.964Z,96095.78
2023-11-11T00:18:03.340Z,96091.59
2023-11-11T00:20:31.530Z,96088.75
2023-11-11T00:22:59.679Z,96085.80
2023-11-11T00:25:27.686Z,96083.69
2023-11-11T00:27:55.980Z,96084.90
2023-11-11T00:30:24.100Z,96083.23
2023-11-11T00:32:55.420Z,96084.46
2023-11-11T00:35:23.528Z,96078.86
2023-11-11T00:37:51.662Z,96076.33
2023-11-11T00:40:19.648Z,96077.00
2023-11-11T00:42:47.757Z,96076.98
2023-11-11T00:45:16.015Z,96071.89
2023-11-11T00:47:44.498Z,96072.08
2023-11-11T00:50:12.634Z,96066.23
2023-11-11T00:52:40.798Z,96066.51
2023-11-11T00:55:09.182Z,96062.79
2023-11-11T00:57:37.304Z,96061.23
2023-11-11T01:00:06.617Z,96062.50
2023-11-11T01:02:34.568Z,96059.29
2023-11-11T01:05:02.493Z,96053.73
2023-11-11T01:07:31.119Z,96051.81
2023-11-11T01:10:00.010Z,96047.95
2023-11-11T01:12:28.241Z,96044.63
2023-11-11T01:14:56.494Z,96039.61
2023-11-11T01:17:24.680Z,96040.46
2023-11-11T01:19:52.718Z,96035.26
2023-11-11T01:22:20.653Z,96032.02
2023-11-11T01:24:49.021Z,96027.88
2023-11-11T01:27:17.327Z,96027.31
2023-11-11T01:29:45.267Z,96025.04
2023-11-11T01:32:13.272Z,96021.11
2023-11-11T01:34:41.404Z,96019.08
2023-11-11T01:37:09.894Z,96015.29
2023-11-11T01:39:38.142Z,96008.06
2023-11-11T01:42:06.736Z,96007.27
2023-11-11T01:44:34.746Z,96000.12
2023-11-11T01:47:07.502Z,95999.52
2023-11-11T01:49:36.097Z,95997.10
2023-11-11T01:52:06.582Z,96000.17
2023-11-11T01:54:36.181Z,95996.77
2023-11-11T01:57:06.175Z,95991.09
2023-11-11T01:59:36.807Z,95986.84
2023-11-11T02:02:05.531Z,95983.32
2023-11-11T02:04:34.948Z,95980.37
2023-11-11T02:07:03.162Z,95977.33
2023-11-11T02:09:31.256Z,95972.45
2023-11-11T02:11:59.424Z,95970.29
2023-11-11T02:14:27.693Z,95968.70
2023-11-11T02:16:56.280Z,95971.30
2023-11-11T02:19:24.346Z,95970.54
2023-11-11T02:21:52.432Z,95965.67
2023-11-11T02:24:22.530Z,95962.21
2023-11-11T02:26:51.183Z,95960.63
2023-11-11T02:29:19.140Z,95963.06
2023-11-11T02:31:47.048Z,95959.13
2023-11-11T02:34:15.289Z,95960.45
2023-11-11T02:36:53.909Z,95956.45
2023-11-11T02:39:28.912Z,95954.42
2023-11-11T02:41:56.984Z,95952.52
2023-11-11T02:44:26.241Z,95961.29
2023-11-11T02:46:54.249Z,95957.36
2023-11-11T02:49:22.855Z,95954.51
2023-11-11T02:51:50.820Z,95953.27
2023-11-11T02:54:18.991Z,95952.36
2023-11-11T02:56:47.163Z,95953.14
2023-11-11T02:59:15.235Z,95948.13
2023-11-11T03:01:43.446Z,95948.02
2023-11-11T03:04:13.499Z,95939.53
2023-11-11T03:06:45.036Z,95939.55
2023-11-11T03:09:13.369Z,95943.66
2023-11-11T03:11:41.267Z,95943.04
2023-11-11T03:14:09.493Z,95939.18
2023-11-11T03:16:38.949Z,95934.98
2023-11-11T03:19:08.076Z,95934.35
2023-11-11T03:21:36.453Z,95932.77
2023-11-11T03:24:06.026Z,95933.91
2023-11-11T03:26:34.673Z,95930.64
2023-11-11T03:29:03.054Z,95928.31
2023-11-11T03:31:31.214Z,95922.42
2023-11-11T03:33:59.694Z,95917.94
2023-11-11T03:36:28.375Z,95916.59
2023-11-11T03:38:56.415Z,95916.30
2023-11-11T03:41:24.627Z,95915.35
2023-11-11T03:43:53.010Z,95920.82
2023-11-11T03:46:21.267Z,95917.44
2023-11-11T03:48:49.343Z,95909.91
2023-11-11T03:51:17.614Z,95909.80
2023-11-11T03:53:45.583Z,95908.23
2023-11-11T03:56:13.976Z,95908.12
2023-11-11T03:58:42.275Z,95905.79
2023-11-11T04:01:10.734Z,95902.70
2023-11-11T04:03:40.995Z,95899.40
2023-11-11T04:06:10.963Z,95891.96
2023-11-11T04:08:41.008Z,95894.05
2023-11-11T04:11:10.153Z,95886.11
2023-11-11T04:13:42.102Z,95880.37
2023-11-11T04:16:15.022Z,95876.67
2023-11-11T04:18:43.340Z,95870.40
2023-11-11T04:21:13.175Z,95864.63
2023-11-11T04:23:44.252Z,95867.68
2023-11-11T04:26:12.191Z,95868.38
2023-11-11T04:28:44.246Z,95873.61
2023-11-11T04:31:13.608Z,95872.05
2023-11-11T04:33:41.554Z,95867.48
2023-11-11T04:36:09.583Z,95864.02
2023-11-11T04:38:38.686Z,95861.38
2023-11-11T04:41:06.939Z,95857.85
2023-11-11T04:43:36.172Z,95857.12
2023-11-11T04:46:04.495Z,95859.84
2023-11-11T04:48:32.687Z,95860.34
2023-11-11T04:51:01.207Z,95859.37
2023-11-11T04:53:29.472Z,95850.03
2023-11-11T04:55:57.626Z,95848.24
2023-11-11T04:58:25.935Z,95848.33
2023-11-11T05:00:54.117Z,95848.62
2023-11-11T05:03:22.348Z,95844.35
2023-11-11T05:05:50.539Z,95846.06
2023-11-11T05:08:18.787Z,95844.02
2023-11-11T05:10:47.153Z,95847.45
2023-11-11T05:13:16.014Z,95848.56
2023-11-11T05:15:47.038Z,95855.67
2023-11-11T05:18:15.466Z,95862.62
2023-11-11T05:20:43.512Z,95864.26
2023-11-11T05:23:11.895Z,95863.90
2023-11-11T05:25:40.196Z,95857.45
2023-11-11T05:28:08.811Z,95860.85
2023-11-11T05:30:37.142Z,95860.81
2023-11-11T05:33:06.682Z,95853.88
2023-11-11T05:35:35.003Z,95855.20
2023-11-11T05:38:03.038Z,95860.92
2023-11-11T05:40:31.432Z,95864.54
2023-11-11T05:43:01.642Z,95861.20
2023-11-11T05:45:30.095Z,95860.27
2023-11-11T05:47:58.254Z,95857.84
2023-11-11T05:50:26.371Z,95855.85
2023-11-11T05:52:54.509Z,95857.79
2023-11-11T05:55:22.496Z,95858.84
2023-11-11T05:57:50.675Z,95854.48
2023-11-11T06:00:19.420Z,95852.51
2023-11-11T06:02:47.696Z,95851.11
2023-11-11T06:05:15.968Z,95852.05
2023-11-11T06:07:43.973Z,95849.81
2023-11-11T06:10:12.768Z,95856.56
2023-11-11T06:12:41.082Z,95862.03
2023-11-11T06:15:09.584Z,95866.45
2023-11-11T06:17:37.942Z,95867.40
2023-11-11T06:20:09.344Z,95870.29
2023-11-11T06:22:37.555Z,95873.17
2023-11-11T06:25:07.055Z,95874.70
2023-11-11T06:27:35.885Z,95869.05
2023-11-11T06:30:09.716Z,95869.25
2023-11-11T06:32:38.050Z,95869.19
2023-11-11T06:35:09.735Z,95869.36
2023-11-11T06:37:37.988Z,95874.61
2023-11-11T06:40:08.446Z,95879.66
2023-11-11T06:42:41.962Z,95882.56
2023-11-11T06:45:16.341Z,95875.70
2023-11-11T06:47:44.788Z,95870.23
2023-11-11T06:50:13.186Z,95868.20
2023-11-11T06:52:41.338Z,95862.12
2023-11-11T06:55:10.938Z,95857.38
2023-11-11T06:57:38.985Z,95853.75
2023-11-11T07:00:11.704Z,95853.06
2023-11-11T07:02:39.895Z,95855.04
2023-11-11T07:05:11.429Z,95848.06
2023-11-11T07:07:42.985Z,95845.10
2023-11-11T07:10:13.318Z,95838.61
2023-11-11T07:12:42.427Z,95833.66
2023-11-11T07:15:11.707Z,95836.97
2023-11-11T07:17:42.963Z,95838.04
2023-11-11T07:20:18.342Z,95832.80
2023-11-11T07:22:46.909Z,95828.69
2023-11-11T07:25:16.253Z,95825.39
2023-11-11T07:27:45.077Z,95824.27
2023-11-11T07:30:14.075Z,95818.21
2023-11-11T07:32:53.211Z,95819.09
2023-11-11T07:35:27.744Z,95815.41
2023-11-11T07:37:56.329Z,95811.38
2023-11-11T07:40:26.939Z,95805.83
2023-11-11T07:42:58.075Z,95799.87
2023-11-11T07:45:27.895Z,95794.98
2023-11-11T07:47:56.983Z,95794.21
2023-11-11T07:50:26.453Z,95801.20
2023-11-11T07:52:56.663Z,95803.23
2023-11-11T07:55:25.022Z,95798.50
2023-11-11T08:00:25.849Z,95783.34
2023-11-11T08:02:54.121Z,95783.40
2023-11-11T08:05:24.671Z,95775.53
2023-11-11T08:07:53.409Z,95768.70
2023-11-11T08:10:22.977Z,95766.73
2023-11-11T08:12:52.998Z,95769.19
2023-11-11T08:15:21.686Z,95771.59
2023-11-11T08:17:50.510Z,95771.37
2023-11-11T08:20:19.886Z,95771.49
2023-11-11T08:22:49.701Z,95771.08
2023-11-11T08:25:17.872Z,95777.83
2023-11-11T08:27:46.470Z,95775.64
2023-11-11T08:30:14.711Z,95769.39
2023-11-11T08:32:43.584Z,95764.27
2023-11-11T08:35:15.866Z,95760.22
2023-11-11T08:37:44.790Z,95757.66
2023-11-11T08:40:14.695Z,95754.30
2023-11-11T08:42:42.962Z,95750.06
2023-11-11T08:45:14.905Z,95740.21
2023-11-11T08:47:43.166Z,95734.42
2023-11-11T08:50:13.153Z,95733.73
2023-11-11T08:52:44.122Z,95730.25
2023-11-11T08:55:13.267Z,95726.92
2023-11-11T08:57:41.512Z,95718.79
2023-11-11T09:00:13.283Z,95716.17
2023-11-11T09:02:41.492Z,95709.45
2023-11-11T09:05:11.125Z,95703.29
2023-11-11T09:07:39.252Z,95698.20
2023-11-11T09:10:07.849Z,95696.44
2023-11-11T09:12:38.042Z,95695.05
2023-11-11T09:15:06.706Z,95691.46
2023-11-11T09:17:34.880Z,95688.20
2023-11-11T09:20:03.004Z,95691.66
2023-11-11T09:22:30.978Z,95687.17
2023-11-11T09:24:59.215Z,95684.08
2023-11-11T09:27:27.573Z,95686.23
2023-11-11T09:29:55.656Z,95687.73
2023-11-11T09:32:23.826Z,95687.57
2023-11-11T09:34:52.009Z,95683.99
2023-11-11T09:37:20.185Z,95684.33
2023-11-11T09:39:48.393Z,95682.77
2023-11-11T09:42:16.676Z,95678.89
2023-11-11T09:47:19.712Z,95664.84
2023-11-11T09:49:48.024Z,95661.03
2023-11-11T09:52:17.392Z,95656.55
2023-11-11T09:54:47.582Z,95657.15
2023-11-11T09:57:18.363Z,95655.29
2023-11-11T09:59:47.986Z,95652.70
2023-11-11T10:02:16.723Z,95648.27
2023-11-11T10:04:44.894Z,95642.98
2023-11-11T10:07:13.758Z,95639.95
2023-11-11T10:09:42.956Z,95640.73
2023-11-11T10:12:11.497Z,95644.20
2023-11-11T10:14:42.719Z,95645.98
2023-11-11T10:17:12.584Z,95641.80
2023-11-11T10:19:54.601Z,95643.79
2023-11-11T10:22:27.409Z,95646.59
2023-11-11T10:24:57.836Z,95644.66
2023-11-11T10:27:29.042Z,95643.10
2023-11-11T10:29:58.005Z,95643.67
2023-11-11T10:32:28.874Z,95640.33
2023-11-11T10:34:58.369Z,95638.21
2023-11-11T10:37:26.512Z,95631.89
2023-11-11T10:39:54.568Z,95636.73
2023-11-11T10:42:23.164Z,95637.42
2023-11-11T10:44:51.956Z,95638.21
2023-11-11T10:47:20.269Z,95638.64
2023-11-11T10:49:48.965Z,95634.09
2023-11-11T10:52:20.212Z,95634.42
2023-11-11T10:54:52.443Z,95633.11
2023-11-11T10:57:21.705Z,95632.05
2023-11-11T10:59:49.962Z,95629.89
2023-11-11T11:02:19.395Z,95632.67
2023-11-11T11:04:54.927Z,95629.77
2023-11-11T11:07:29.364Z,95625.62
2023-11-11T11:10:04.641Z,95621.77
2023-11-11T11:12:39.752Z,95617.64
2023-11-11T11:15:14.447Z,95608.73
2023-11-11T11:17:45.794Z,95603.20
2023-11-11T11:20:19.274Z,95602.89
2023-11-11T11:22:50.720Z,95602.14
2023-11-11T11:25:40.250Z,95597.19
2023-11-11T11:28:11.176Z,95593.79
2023-11-11T11:30:59.707Z,95593.67
2023-11-11T11:33:32.569Z,95593.09
2023-11-11T11:36:05.680Z,95592.33
2023-11-11T11:38:39.837Z,95590.20
2023-11-11T11:41:20.663Z,95592.01
2023-11-11T11:43:54.435Z,95588.98
2023-11-11T11:46:23.108Z,95585.63
2023-11-11T11:48:52.291Z,95585.17
2023-11-11T11:51:21.349Z,95586.29
2023-11-11T11:53:54.704Z,95587.77
2023-11-11T11:56:31.222Z,95588.42
2023-11-11T11:59:03.367Z,95589.61
2023-11-11T12:01:35.630Z,95586.48
2023-11-11T12:04:05.160Z,95587.72
2023-11-11T12:06:40.017Z,95587.25
2023-11-11T12:09:13.359Z,95584.14
2023-11-11T12:11:41.456Z,95580.05
2023-11-11T12:14:10.806Z,95578.80
2023-11-11T12:16:44.360Z,95577.10
2023-11-11T12:19:18.273Z,95571.18
2023-11-11T12:21:48.829Z,95574.00
2023-11-11T12:24:18.384Z,95571.88
2023-11-11T12:26:50.060Z,95570.61
2023-11-11T12:29:20.373Z,95572.63
2023-11-11T12:31:49.659Z,95571.39
2023-11-11T12:34:26.196Z,95567.96
2023-11-11T12:36:55.247Z,95564.55
2023-11-11T12:39:26.650Z,95564.60
2023-11-11T12:41:58.271Z,95562.17
2023-11-11T12:44:27.413Z,95560.95
2023-11-11T12:47:00.075Z,95560.64
2023-11-11T12:49:29.895Z,95559.61
2023-11-11T12:52:00.813Z,95561.35
2023-11-11T12:54:32.809Z,95559.13
2023-11-11T12:57:01.771Z,95557.83
2023-11-11T12:59:29.831Z,95557.27
2023-11-11T13:02:02.322Z,95553.52
2023-11-11T13:04:34.366Z,95556.37
2023-11-11T13:07:02.846Z,95553.63
2023-11-11T13:09:42.940Z,95549.90
2023-11-11T13:12:12.055Z,95543.87
2023-11-11T13:14:44.805Z,95543.57
2023-11-11T13:17:13.643Z,95539.93
2023-11-11T13:19:41.901Z,95538.64
2023-11-11T13:22:10.808Z,95541.58
2023-11-11T13:24:39.262Z,95545.96
2023-11-11T13:27:08.835Z,95546.20
2023-11-11T13:29:37.307Z,95542.92
2023-11-11T13:32:05.999Z,95535.45
2023-11-11T13:34:34.936Z,95532.94
2023-11-11T13:37:12.868Z,95533.33
2023-11-11T13:39:52.741Z,95532.98
2023-11-11T13:42:22.728Z,95532.11
2023-11-11T13:44:51.544Z,95534.06
2023-11-11T13:47:21.610Z,95530.42
2023-11-11T13:49:49.705Z,95530.58
2023-11-11T13:52:17.745Z,95529.95
2023-11-11T13:54:46.103Z,95527.73
2023-11-11T13:57:16.750Z,95527.55
2023-11-11T13:59:44.912Z,95529.42
2023-11-11T14:02:13.761Z,95530.30
2023-11-11T14:04:47.142Z,95531.95
2023-11-11T14:07:15.315Z,95535.36
2023-11-11T14:09:43.323Z,95533.82
2023-11-11T14:12:13.608Z,95534.23
2023-11-11T14:14:43.044Z,95533.23
2023-11-11T14:17:23.734Z,95530.62
2023-11-11T14:19:53.473Z,95528.53
2023-11-11T14:22:23.603Z,95528.59
2023-11-11T14:24:51.763Z,95526.92
2023-11-11T14:27:19.852Z,95519.87
2023-11-11T14:29:48.614Z,95518.41
2023-11-11T14:32:20.522Z,95511.21
2023-11-11T14:34:48.617Z,95508.98
2023-11-11T14:37:16.662Z,95505.42
2023-11-11T14:39:46.666Z,95506.17
2023-11-11T14:42:15.754Z,95507.79
2023-11-11T14:44:43.808Z,95506.45
2023-11-11T14:47:12.133Z,95508.95
2023-11-11T14:49:40.229Z,95507.52
2023-11-11T14:52:10.908Z,95505.34
2023-11-11T14:54:41.608Z,95509.52
2023-11-11T14:57:13.607Z,95503.40
2023-11-11T14:59:41.653Z,95502.15
2023-11-11T15:02:09.922Z,95503.70
2023-11-11T15:04:38.215Z,95500.77
2023-11-11T15:07:06.750Z,95497.10
2023-11-11T15:09:34.985Z,95490.68
2023-11-11T15:12:02.973Z,95488.29
2023-11-11T15:14:31.207Z,95488.00
2023-11-11T15:17:01.366Z,95486.23
2023-11-11T15:19:29.514Z,95486.76
2023-11-11T15:21:57.975Z,95484.23
2023-11-11T15:24:29.543Z,95485.48
2023-11-11T15:26:57.461Z,95486.59
2023-11-11T15:29:25.374Z,95484.54
2023-11-11T15:31:53.372Z,95481.98
2023-11-11T15:34:21.651Z,95483.98
2023-11-11T15:36:50.201Z,95489.16
2023-11-11T15:39:24.026Z,95493.27
2023-11-11T15:41:52.502Z,95491.18
2023-11-11T15:44:20.494Z,95489.94
2023-11-11T15:46:51.569Z,95489.34
2023-11-11T15:49:21.445Z,95485.35
2023-11-11T15:51:51.063Z,95486.17
2023-11-11T15:54:19.191Z,95487.12
2023-11-11T15:56:49.682Z,95490.41
2023-11-11T15:59:19.090Z,95493.52
2023-11-11T16:01:47.371Z,95494.39
2023-11-11T16:04:16.647Z,95493.29
2023-11-11T16:06:44.575Z,95492.49
2023-11-11T16:09:18.014Z,95494.79
2023-11-11T16:11:46.382Z,95492.83
2023-11-11T16:14:14.597Z,95491.60
2023-11-11T16:16:42.818Z,95488.68
2023-11-11T16:19:11.144Z,95491.86
2023-11-11T16:21:39.270Z,95494.95
2023-11-11T16:24:20.496Z,95500.17
2023-11-11T16:26:55.766Z,95504.31
2023-11-11T16:29:23.963Z,95507.36
2023-11-11T16:31:52.323Z,95502.51
2023-11-11T16:34:22.346Z,95503.82
2023-11-11T16:36:50.525Z,95501.35
2023-11-11T16:39:20.433Z,95498.31
2023-11-11T16:41:52.279Z,95504.35
2023-11-11T16:44:22.028Z,95505.59
2023-11-11T16:46:50.114Z,95505.56
2023-11-11T16:49:18.232Z,95505.04
2023-11-11T16:51:46.967Z,95501.31
2023-11-11T16:54:15.155Z,95500.57
2023-11-11T16:56:43.628Z,95499.05
2023-11-11T16:59:13.162Z,95502.40
2023-11-11T17:01:41.473Z,95500.61
2023-11-11T17:04:10.520Z,95500.05
2023-11-11T17:06:38.620Z,95497.77
2023-11-11T17:09:12.265Z,95494.52
2023-11-11T17:11:44.171Z,95493.45
2023-11-11T17:14:12.758Z,95494.06
2023-11-11T17:16:42.268Z,95495.19
2023-11-11T17:19:10.708Z,95493.95
2023-11-11T17:21:38.801Z,95495.81
2023-11-11T17:24:07.821Z,95497.42
2023-11-11T17:26:38.361Z,95501.08
2023-11-11T17:29:06.470Z,95499.39
2023-11-11T17:31:35.044Z,95504.35
2023-11-11T17:34:03.300Z,95503.10
2023-11-11T17:36:32.717Z,95504.91
2023-11-11T17:39:00.983Z,95502.92
2023-11-11T17:41:29.083Z,95501.95
2023-11-11T17:43:57.586Z,95498.67
2023-11-11T17:46:25.630Z,95497.64
2023-11-11T17:48:54.879Z,95496.21
2023-11-11T17:51:23.548Z,95496.92
2023-11-11T17:53:51.930Z,95494.86
2023-11-11T17:56:24.030Z,95493.04
2023-11-11T17:58:52.597Z,95494.23
2023-11-11T18:01:21.058Z,95494.06
2023-11-11T18:03:49.492Z,95498.79
2023-11-11T18:06:17.751Z,95498.63
2023-11-11T18:08:47.074Z,95498.86
2023-11-11T18:11:15.582Z,95500.43
2023-11-11T18:13:43.705Z,95500.46
2023-11-11T18:16:18.758Z,95499.98
2023-11-11T18:18:47.516Z,95501.32
2023-11-11T18:21:16.926Z,95499.25
2023-11-11T18:23:47.741Z,95497.98
2023-11-11T18:26:17.395Z,95501.72
2023-11-11T18:28:47.712Z,95506.47
2023-11-11T18:31:18.503Z,95507.19
2023-11-11T18:33:46.902Z,95509.30
2023-11-11T18:36:14.934Z,95512.69
2023-11-11T18:38:44.290Z,95507.58
2023-11-11T18:41:12.821Z,95508.39
2023-11-11T18:43:40.920Z,95508.55
2023-11-11T18:46:15.556Z,95508.44
2023-11-11T18:48:43.626Z,95506.48
2023-11-11T18:51:11.758Z,95506.30
2023-11-11T18:53:40.079Z,95507.66
2023-11-11T18:56:08.409Z,95508.54
2023-11-11T18:58:36.610Z,95511.46
2023-11-11T19:01:05.950Z,95508.86
2023-11-11T19:03:36.071Z,95509.45
2023-11-11T19:06:05.404Z,95510.48
2023-11-11T19:08:33.469Z,95509.67
2023-11-11T19:11:01.770Z,95508.29
2023-11-11T19:13:29.655Z,95506.52
2023-11-11T19:15:58.424Z,95509.26
2023-11-11T19:18:26.408Z,95504.65
2023-11-11T19:20:54.400Z,95507.48
2023-11-11T19:23:23.045Z,95507.07
2023-11-11T19:25:51.522Z,95501.01
2023-11-11T19:28:19.474Z,95502.23
2023-11-11T19:30:47.622Z,95504.06
2023-11-11T19:33:16.140Z,95500.71
2023-11-11T19:35:44.283Z,95499.47
2023-11-11T19:38:12.392Z,95501.23
2023-11-11T19:40:41.402Z,95505.27
2023-11-11T19:43:09.569Z,95505.60
2023-11-11T19:45:38.894Z,95504.48
2023-11-11T19:48:07.331Z,95504.48
2023-11-11T19:50:35.317Z,95504.55
2023-11-11T19:53:03.302Z,95505.91
2023-11-11T19:55:31.267Z,95504.27
2023-11-11T19:57:59.730Z,95505.61
2023-11-11T20:00:28.099Z,95509.05
2023-11-11T20:02:56.023Z,95506.83
2023-11-11T20:05:25.932Z,95506.16
2023-11-11T20:07:54.270Z,95504.52
2023-11-11T20:10:22.348Z,95505.48
2023-11-11T20:12:55.222Z,95505.11
2023-11-11T20:15:23.516Z,95510.45
2023-11-11T20:17:51.794Z,95512.59
2023-11-11T20:20:19.853Z,95513.30
2023-11-11T20:22:48.219Z,95516.83
2023-11-11T20:25:24.562Z,95515.10
2023-11-11T20:27:56.388Z,95512.58
2023-11-11T20:30:26.697Z,95512.77
2023-11-11T20:32:54.924Z,95510.89
2023-11-11T20:35:23.039Z,95513.39
2023-11-11T20:37:51.032Z,95513.95
2023-11-11T20:40:19.580Z,95514.79
2023-11-11T20:42:51.670Z,95518.80
2023-11-11T20:45:19.630Z,95516.73
2023-11-11T20:47:47.700Z,95514.67
2023-11-11T20:50:16.484Z,95514.21
2023-11-11T20:52:45.869Z,95512.40
2023-11-11T20:55:15.345Z,95514.69
2023-11-11T20:57:43.631Z,95516.77
2023-11-11T21:00:13.455Z,95516.46
2023-11-11T21:02:42.415Z,95521.27
2023-11-11T21:05:19.124Z,95525.79
2023-11-11T21:07:47.472Z,95532.41
2023-11-11T21:10:17.910Z,95537.73
2023-11-11T21:12:50.853Z,95544.92
2023-11-11T21:15:22.419Z,95548.29
2023-11-11T21:17:51.834Z,95551.50
2023-11-11T21:20:19.813Z,95550.78
2023-11-11T21:22:51.284Z,95553.70
2023-11-11T21:25:21.796Z,95558.44
2023-11-11T21:27:49.933Z,95560.93
2023-11-11T21:30:18.482Z,95562.05
2023-11-11T21:32:47.332Z,95565.14
2023-11-11T21:35:15.412Z,95567.77
2023-11-11T21:37:43.516Z,95569.06
2023-11-11T21:40:12.127Z,95564.45
2023-11-11T21:42:40.382Z,95563.77
2023-11-11T21:45:08.638Z,95565.08
2023-11-11T21:47:38.000Z,95567.25
2023-11-11T21:50:06.908Z,95563.79
2023-11-11T21:52:38.147Z,95565.95
2023-11-11T21:55:07.150Z,95570.14
2023-11-11T21:57:37.753Z,95570.75
2023-11-11T22:00:11.081Z,95568.53
2023-11-11T22:02:39.323Z,95567.07
2023-11-11T22:05:08.159Z,95569.23
2023-11-11T22:07:36.207Z,95570.81
2023-11-11T22:10:06.699Z,95577.12
2023-11-11T22:12:34.703Z,95578.90
2023-11-11T22:15:03.610Z,95583.13
2023-11-11T22:17:33.202Z,95585.04
2023-11-11T22:20:01.914Z,95587.75
2023-11-11T22:22:29.874Z,95590.66
2023-11-11T22:24:57.806Z,95587.29
2023-11-11T22:27:27.110Z,95585.25
2023-11-11T22:29:55.320Z,95588.10
2023-11-11T22:32:24.187Z,95586.37
2023-11-11T22:34:52.056Z,95587.91
2023-11-11T22:37:20.823Z,95587.60
2023-11-11T22:39:49.232Z,95590.58
2023-11-11T22:42:17.122Z,95590.84
2023-11-11T22:44:45.064Z,95591.63
2023-11-11T22:47:13.369Z,95596.63
2023-11-11T22:49:41.792Z,95598.40
2023-11-11T22:52:09.916Z,95601.05
2023-11-11T22:54:37.849Z,95602.61
2023-11-11T22:57:05.938Z,95599.81
2023-11-11T22:59:34.022Z,95600.79
2023-11-11T23:02:02.020Z,95605.00
2023-11-11T23:04:30.106Z,95606.59
2023-11-11T23:06:58.037Z,95612.69
2023-11-11T23:09:26.016Z,95615.21
2023-11-11T23:11:55.045Z,95616.38
2023-11-11T23:14:23.043Z,95620.48
2023-11-11T23:16:51.359Z,95617.89
2023-11-11T23:19:19.473Z,95620.04
2023-11-11T23:21:47.734Z,95624.64
2023-11-11T23:24:15.860Z,95627.98
2023-11-11T23:26:44.279Z,95629.58
2023-11-11T23:29:13.081Z,95639.77
2023-11-11T23:31:43.312Z,95636.49
2023-11-11T23:34:12.457Z,95634.02
2023-11-11T23:36:40.564Z,95635.17
2023-11-11T23:39:09.289Z,95638.55
2023-11-11T23:41:37.485Z,95640.86
2023-11-11T23:44:10.103Z,95646.39
2023-11-11T23:46:43.963Z,95650.21
2023-11-11T23:49:12.561Z,95651.16
2023-11-11T23:51:40.533Z,95652.56
2023-11-11T23:54:08.978Z,95657.36
2023-11-11T23:56:36.991Z,95660.10
2023-11-11T23:59:05.430Z,95662.79
